createdAt,value
2017-11-08T00:01:39.204Z,28.4
2017-11-08T00:11:53.500Z,28.2
2017-11-08T00:22:07.279Z,28.2
2017-11-08T00:32:22.068Z,28.1
2017-11-08T00:42:36.690Z,27.9
2017-11-08T00:52:52.046Z,28.2
2017-11-08T01:03:06.630Z,28.1
2017-11-08T01:13:21.325Z,27.8
2017-11-08T01:23:36.716Z,28.4
2017-11-08T01:33:52.095Z,28.3
2017-11-08T01:44:07.622Z,28.6
2017-11-08T01:54:22.973Z,28.5
2017-11-08T02:04:38.463Z,28.5
2017-11-08T02:14:53.588Z,28.5
2017-11-08T02:25:08.272Z,28.5
2017-11-08T02:35:21.981Z,28.7
2017-11-08T02:45:36.514Z,28.9
2017-11-08T02:55:51.160Z,28.6
2017-11-08T03:06:05.178Z,28.7
2017-11-08T03:16:20.827Z,29.1
2017-11-08T03:26:34.527Z,29.4
2017-11-08T03:36:48.236Z,29.9
2017-11-08T03:47:02.452Z,30.1
2017-11-08T03:57:17.434Z,30.2
2017-11-08T04:07:31.799Z,30.3
2017-11-08T04:17:46.709Z,30.4
2017-11-08T04:28:00.811Z,31.1
2017-11-08T04:38:15.651Z,31.5
2017-11-08T04:48:30.424Z,31.3
2017-11-08T04:58:45.126Z,31.4
2017-11-08T05:08:59.481Z,31.7
2017-11-08T05:19:14.768Z,31.7
2017-11-08T05:29:28.810Z,31.4
2017-11-08T05:39:42.711Z,31.7
2017-11-08T05:49:58.170Z,31.9
2017-11-08T06:00:12.036Z,32.3
2017-11-08T06:10:26.479Z,32.9
2017-11-08T06:20:40.672Z,32.8
2017-11-08T06:30:55.852Z,32.6
2017-11-08T06:41:09.578Z,32.8
2017-11-08T06:51:25.082Z,33
2017-11-08T07:01:38.760Z,33.1
2017-11-08T07:11:53.050Z,33.5
2017-11-08T07:22:08.674Z,33.3
2017-11-08T07:32:22.599Z,34
2017-11-08T07:42:37.371Z,34.4
2017-11-08T07:52:52.354Z,35
2017-11-08T08:03:07.009Z,35.4
2017-11-08T08:13:22.453Z,36.2
2017-11-08T08:23:36.438Z,36.6
2017-11-08T08:33:51.403Z,37.2
2017-11-08T08:44:06.148Z,37.2
2017-11-08T08:54:21.798Z,37.5
2017-11-08T09:04:36.101Z,38.1
2017-11-08T09:14:51.447Z,38.1
2017-11-08T09:25:05.361Z,37.9
2017-11-08T09:35:19.791Z,38
2017-11-08T09:45:34.671Z,38.2
2017-11-08T09:55:49.180Z,38.1
2017-11-08T10:06:04.017Z,38.6
2017-11-08T10:16:19.462Z,38.5
2017-11-08T10:26:33.378Z,39.5
2017-11-08T10:36:47.691Z,40.1
2017-11-08T10:47:01.600Z,42
2017-11-08T10:57:16.407Z,43.5
2017-11-08T11:07:30.991Z,45.7
2017-11-08T11:17:46.669Z,46.3
2017-11-08T11:28:01.595Z,46.5
2017-11-08T11:38:16.073Z,45.4
2017-11-08T11:48:30.731Z,46
2017-11-08T11:58:45.938Z,47.9
2017-11-08T12:09:00.687Z,48.5
2017-11-08T12:19:16.413Z,50.3
2017-11-08T12:29:32.066Z,53
2017-11-08T12:39:46.049Z,56.6
2017-11-08T12:50:01.609Z,56.5
2017-11-08T13:00:16.624Z,59.7
2017-11-08T13:10:31.761Z,59.9
2017-11-08T13:20:47.183Z,59.6
2017-11-08T13:31:02.266Z,58.3
2017-11-08T13:41:16.413Z,59.5
2017-11-08T13:51:31.013Z,61.6
2017-11-08T14:01:46.198Z,62.4
2017-11-08T14:12:00.074Z,64.7
2017-11-08T14:22:14.861Z,64.6
2017-11-08T14:32:29.815Z,62.9
2017-11-08T14:42:44.728Z,62.6
2017-11-08T14:52:59.862Z,62.1
2017-11-08T15:03:14.441Z,59.5
2017-11-08T15:13:30.102Z,59.9
2017-11-08T15:23:44.198Z,58
2017-11-08T15:33:59.146Z,57.9
2017-11-08T15:44:14.029Z,59.3
2017-11-08T15:54:29.234Z,57.9
2017-11-08T16:04:43.719Z,59.2
2017-11-08T16:14:57.841Z,56.8
2017-11-08T16:25:11.763Z,56.9
2017-11-08T16:35:27.259Z,56.3
2017-11-08T16:45:42.106Z,55.7
2017-11-08T16:55:56.648Z,56.1
2017-11-08T17:06:10.613Z,55.3
2017-11-08T17:16:26.163Z,54.5
2017-11-08T17:26:39.937Z,54
2017-11-08T17:36:53.760Z,53.9
2017-11-08T17:47:08.098Z,54
2017-11-08T17:57:22.249Z,53.4
2017-11-08T18:07:37.660Z,52.9
2017-11-08T18:17:53.292Z,51.6
2017-11-08T18:28:07.609Z,50.3
2017-11-08T18:38:22.762Z,50.9
2017-11-08T18:48:38.051Z,50
2017-11-08T18:58:52.212Z,48
2017-11-08T19:09:07.367Z,45.6
2017-11-08T19:19:22.951Z,43.4
2017-11-08T19:29:36.996Z,43.4
2017-11-08T19:39:51.232Z,43.4
2017-11-08T19:50:05.877Z,44.3
2017-11-08T20:00:21.290Z,44.6
2017-11-08T20:10:36.972Z,44.8
2017-11-08T20:20:52.041Z,44.3
2017-11-08T20:31:06.548Z,43.9
2017-11-08T20:41:22.164Z,43.2
2017-11-08T20:51:36.194Z,42.6
2017-11-08T21:01:50.801Z,41.7
2017-11-08T21:12:04.786Z,40.4
2017-11-08T21:22:18.463Z,39.1
2017-11-08T21:32:33.262Z,38.1
2017-11-08T21:42:48.717Z,37.6
2017-11-08T21:53:04.355Z,36.5
2017-11-08T22:03:18.709Z,36.3
2017-11-08T22:13:32.512Z,35.5
2017-11-08T22:23:47.710Z,34.8
2017-11-08T22:34:02.850Z,34.3
2017-11-08T22:44:16.877Z,33.8
2017-11-08T22:54:31.273Z,33.1
2017-11-08T23:04:45.552Z,32.6
2017-11-08T23:15:00.969Z,32.8
2017-11-08T23:25:16.637Z,31.5
2017-11-08T23:35:31.061Z,31.8
2017-11-08T23:45:46.452Z,31.7
2017-11-08T23:56:00.470Z,31.2
